createdAt,value
2019-02-12T00:00:18.416Z,2.50
2019-02-12T00:02:47.350Z,2.90
2019-02-12T00:05:16.461Z,2.80
2019-02-12T00:07:45.457Z,2.40
2019-02-12T00:10:14.291Z,2.80
2019-02-12T00:12:43.585Z,3.43
2019-02-12T00:15:12.360Z,3.00
2019-02-12T00:17:41.535Z,2.70
2019-02-12T00:20:10.286Z,2.80
2019-02-12T00:22:39.105Z,3.00
2019-02-12T00:25:08.017Z,2.60
2019-02-12T00:27:36.829Z,3.03
2019-02-12T00:30:06.368Z,2.80
2019-02-12T00:32:35.181Z,2.83
2019-02-12T00:35:04.123Z,3.20
2019-02-12T00:37:33.139Z,3.12
2019-02-12T00:40:02.073Z,3.83
2019-02-12T00:42:31.624Z,3.87
2019-02-12T00:45:00.978Z,4.57
2019-02-12T00:47:30.189Z,3.30
2019-02-12T00:49:59.339Z,7.03
2019-02-12T00:52:28.150Z,3.93
2019-02-12T00:54:57.018Z,4.03
2019-02-12T00:57:26.012Z,4.57
2019-02-12T00:59:54.900Z,3.50
2019-02-12T01:02:24.108Z,4.03
2019-02-12T01:04:53.069Z,3.37
2019-02-12T01:07:22.086Z,2.90
2019-02-12T01:09:51.723Z,3.13
2019-02-12T01:12:20.569Z,2.80
2019-02-12T01:14:49.710Z,3.17
2019-02-12T01:17:18.490Z,2.80
2019-02-12T01:19:47.454Z,3.33
2019-02-12T01:22:16.379Z,3.40
2019-02-12T01:24:45.427Z,3.37
2019-02-12T01:27:14.515Z,3.00
2019-02-12T01:29:43.297Z,2.90
2019-02-12T01:32:12.109Z,2.83
2019-02-12T01:34:40.955Z,2.93
2019-02-12T01:37:11.195Z,3.23
2019-02-12T01:39:40.227Z,2.87
2019-02-12T01:42:09.036Z,2.97
2019-02-12T01:44:37.810Z,2.67
2019-02-12T01:47:06.701Z,3.60
2019-02-12T01:49:35.671Z,3.13
2019-02-12T01:52:05.179Z,3.10
2019-02-12T01:54:34.663Z,3.20
2019-02-12T01:57:03.539Z,2.73
2019-02-12T01:59:32.328Z,2.80
2019-02-12T02:02:01.359Z,3.03
2019-02-12T02:04:30.300Z,3.83
2019-02-12T02:06:59.155Z,3.50
2019-02-12T02:09:28.177Z,2.70
2019-02-12T02:11:57.009Z,3.83
2019-02-12T02:14:25.784Z,2.50
2019-02-12T02:16:54.915Z,3.17
2019-02-12T02:19:23.673Z,3.27
2019-02-12T02:21:52.691Z,2.83
2019-02-12T02:24:21.447Z,3.00
2019-02-12T02:26:50.376Z,2.83
2019-02-12T02:29:19.231Z,3.60
2019-02-12T02:31:48.100Z,2.83
2019-02-12T02:34:16.881Z,2.27
2019-02-12T02:36:45.785Z,2.27
2019-02-12T02:39:14.822Z,2.80
2019-02-12T02:41:43.786Z,2.33
2019-02-12T02:44:12.547Z,2.63
2019-02-12T02:46:41.702Z,2.57
2019-02-12T02:49:11.237Z,2.80
2019-02-12T02:51:40.765Z,2.70
2019-02-12T02:54:09.628Z,2.70
2019-02-12T02:56:39.808Z,2.63
2019-02-12T02:59:09.312Z,2.33
2019-02-12T03:01:38.799Z,2.17
2019-02-12T03:04:07.803Z,2.30
2019-02-12T03:06:37.070Z,3.13
2019-02-12T03:09:07.951Z,2.23
2019-02-12T03:11:36.840Z,2.50
2019-02-12T03:14:05.975Z,2.67
2019-02-12T03:16:34.910Z,3.03
2019-02-12T03:19:04.027Z,3.33
2019-02-12T03:21:33.197Z,3.20
2019-02-12T03:24:02.204Z,2.63
2019-02-12T03:26:31.108Z,3.10
2019-02-12T03:29:00.163Z,2.43
2019-02-12T03:31:29.085Z,2.70
2019-02-12T03:33:58.168Z,2.43
2019-02-12T03:36:28.372Z,2.87
2019-02-12T03:38:57.545Z,2.47
2019-02-12T03:41:26.537Z,2.60
2019-02-12T03:43:55.464Z,2.33
2019-02-12T03:46:24.437Z,2.47
2019-02-12T03:48:53.287Z,2.57
2019-02-12T03:51:22.336Z,2.67
2019-02-12T03:53:53.435Z,2.30
2019-02-12T03:56:22.498Z,2.77
2019-02-12T03:58:51.248Z,2.60
2019-02-12T04:01:20.081Z,2.87
2019-02-12T04:03:49.083Z,2.37
2019-02-12T04:06:17.902Z,2.60
2019-02-12T04:08:48.005Z,3.13
2019-02-12T04:11:16.743Z,2.73
2019-02-12T04:13:45.814Z,2.60
2019-02-12T04:16:14.693Z,2.83
2019-02-12T04:18:43.662Z,2.83
2019-02-12T04:21:12.543Z,2.67
2019-02-12T04:23:41.427Z,2.50
2019-02-12T04:26:10.315Z,2.43
2019-02-12T04:28:39.108Z,3.40
2019-02-12T04:31:07.911Z,2.73
2019-02-12T04:33:36.986Z,2.87
2019-02-12T04:36:06.098Z,2.70
2019-02-12T04:38:34.934Z,4.00
2019-02-12T04:41:03.976Z,4.20
2019-02-12T04:43:32.958Z,3.03
2019-02-12T04:46:02.303Z,3.00
2019-02-12T04:48:31.140Z,3.30
2019-02-12T04:51:00.063Z,2.97
2019-02-12T04:53:29.639Z,3.33
2019-02-12T04:55:58.551Z,3.00
2019-02-12T04:58:27.398Z,3.73
2019-02-12T05:00:56.175Z,3.00
2019-02-12T05:03:26.227Z,2.80
2019-02-12T05:05:55.012Z,3.07
2019-02-12T05:08:24.020Z,5.43
2019-02-12T05:10:55.807Z,4.17
2019-02-12T05:13:24.824Z,3.67
2019-02-12T05:15:53.788Z,3.30
2019-02-12T05:18:22.705Z,3.70
2019-02-12T05:20:51.727Z,3.37
2019-02-12T05:23:20.967Z,4.10
2019-02-12T05:25:49.774Z,3.47
2019-02-12T05:28:18.889Z,3.50
2019-02-12T05:30:47.979Z,3.43
2019-02-12T05:33:16.781Z,3.53
2019-02-12T05:35:45.579Z,3.20
2019-02-12T05:38:15.043Z,3.07
2019-02-12T05:40:44.610Z,3.43
2019-02-12T05:43:13.546Z,3.90
2019-02-12T05:45:42.425Z,3.33
2019-02-12T05:48:11.365Z,4.20
2019-02-12T05:50:40.107Z,3.97
2019-02-12T05:53:09.081Z,4.10
2019-02-12T05:55:38.073Z,4.57
2019-02-12T05:58:06.979Z,3.90
2019-02-12T06:00:35.890Z,3.57
2019-02-12T06:03:04.671Z,3.97
2019-02-12T06:05:34.032Z,3.70
2019-02-12T06:08:03.383Z,4.07
2019-02-12T06:10:32.428Z,4.37
2019-02-12T06:13:01.387Z,4.47
2019-02-12T06:15:30.474Z,3.70
2019-02-12T06:17:59.901Z,4.57
2019-02-12T06:20:29.099Z,3.83
2019-02-12T06:23:03.721Z,4.40
2019-02-12T06:25:28.603Z,4.65
2019-02-12T06:27:57.631Z,4.30
2019-02-12T06:30:27.016Z,4.70
2019-02-12T06:32:56.445Z,4.00
2019-02-12T06:35:25.328Z,4.70
2019-02-12T06:37:54.242Z,4.13
2019-02-12T06:40:23.078Z,4.57
2019-02-12T06:42:52.037Z,4.73
2019-02-12T06:45:21.090Z,5.60
2019-02-12T06:47:49.935Z,4.30
2019-02-12T06:50:18.719Z,5.10
2019-02-12T06:52:48.099Z,4.67
2019-02-12T06:55:17.047Z,5.23
2019-02-12T06:57:46.112Z,4.77
2019-02-12T07:00:15.111Z,5.03
2019-02-12T07:03:01.663Z,5.13
2019-02-12T07:05:30.483Z,5.07
2019-02-12T07:08:08.819Z,4.50
2019-02-12T07:10:38.225Z,4.77
2019-02-12T07:13:16.383Z,4.80
2019-02-12T07:15:51.048Z,5.50
2019-02-12T07:18:37.574Z,4.73
2019-02-12T07:21:18.156Z,5.50
2019-02-12T07:23:55.287Z,5.83
2019-02-12T07:26:55.265Z,7.00
2019-02-12T07:29:58.396Z,8.23
2019-02-12T07:32:44.983Z,4.97
2019-02-12T07:35:21.512Z,3.90
2019-02-12T07:38:15.502Z,4.53
2019-02-12T07:40:57.535Z,4.97
2019-02-12T07:43:49.111Z,4.80
2019-02-12T07:46:49.365Z,5.03
2019-02-12T07:49:28.294Z,5.10
2019-02-12T07:52:04.186Z,4.77
2019-02-12T07:54:40.501Z,5.40
2019-02-12T07:57:27.446Z,4.73
2019-02-12T08:00:14.774Z,4.57
2019-02-12T08:03:09.446Z,4.80
2019-02-12T08:05:57.331Z,4.83
2019-02-12T08:08:46.615Z,4.60
2019-02-12T08:11:21.969Z,5.20
2019-02-12T08:14:08.581Z,5.07
2019-02-12T08:16:44.121Z,4.57
2019-02-12T08:19:35.127Z,5.03
2019-02-12T08:22:23.138Z,4.47
2019-02-12T08:24:55.726Z,5.20
2019-02-12T08:27:42.417Z,4.60
2019-02-12T08:30:14.457Z,4.63
2019-02-12T08:33:05.208Z,4.77
2019-02-12T08:36:11.425Z,4.70
2019-02-12T08:39:17.248Z,4.40
2019-02-12T08:42:11.396Z,4.57
2019-02-12T08:45:01.131Z,4.70
2019-02-12T08:47:50.318Z,4.92
2019-02-12T08:50:31.971Z,4.73
2019-02-12T08:53:11.361Z,4.40
2019-02-12T08:56:11.222Z,5.17
2019-02-12T08:59:08.169Z,5.20
2019-02-12T09:01:56.046Z,4.40
2019-02-12T09:04:32.215Z,4.57
2019-02-12T09:07:29.367Z,3.90
2019-02-12T09:10:16.048Z,4.43
2019-02-12T09:13:06.949Z,4.20
2019-02-12T09:15:53.743Z,3.73
2019-02-12T09:18:30.281Z,4.50
2019-02-12T09:21:24.013Z,4.10
2019-02-12T09:24:06.142Z,3.90
2019-02-12T09:26:52.082Z,3.90
2019-02-12T09:29:39.962Z,3.97
2019-02-12T09:32:26.357Z,4.23
2019-02-12T09:35:14.640Z,4.07
2019-02-12T09:37:59.030Z,3.70
2019-02-12T09:40:49.631Z,4.20
2019-02-12T09:43:37.518Z,4.47
2019-02-12T09:46:10.862Z,4.10
2019-02-12T09:48:46.320Z,5.30
2019-02-12T09:51:26.655Z,4.10
2019-02-12T09:54:08.747Z,3.97
2019-02-12T09:56:55.289Z,4.67
2019-02-12T09:59:45.645Z,4.10
2019-02-12T10:02:28.822Z,4.10
2019-02-12T10:05:05.297Z,3.80
2019-02-12T10:07:40.950Z,4.00
2019-02-12T10:10:45.590Z,4.30
2019-02-12T10:13:19.912Z,4.10
2019-02-12T10:16:11.043Z,4.03
2019-02-12T10:19:05.317Z,3.93
2019-02-12T10:21:37.761Z,4.03
2019-02-12T10:24:34.788Z,3.87
2019-02-12T10:27:13.045Z,3.80
2019-02-12T10:30:03.808Z,4.17
2019-02-12T10:32:31.938Z,4.00
2019-02-12T10:35:01.991Z,4.57
2019-02-12T10:37:31.536Z,4.60
2019-02-12T10:40:00.543Z,4.53
2019-02-12T10:42:29.604Z,4.50
2019-02-12T10:44:58.843Z,4.47
2019-02-12T10:47:27.635Z,4.90
2019-02-12T10:49:56.586Z,4.33
2019-02-12T10:52:25.391Z,4.90
2019-02-12T10:54:54.229Z,5.40
2019-02-12T10:57:23.030Z,4.90
2019-02-12T10:59:51.920Z,4.83
2019-02-12T11:02:20.792Z,4.83
2019-02-12T11:04:49.689Z,5.07
2019-02-12T11:07:18.811Z,5.50
2019-02-12T11:09:48.111Z,5.80
2019-02-12T11:12:16.924Z,5.60
2019-02-12T11:14:45.941Z,5.50
2019-02-12T11:17:14.946Z,5.33
2019-02-12T11:19:44.237Z,5.53
2019-02-12T11:22:13.123Z,5.77
2019-02-12T11:24:42.052Z,6.13
2019-02-12T11:27:10.995Z,6.07
2019-02-12T11:29:39.794Z,6.10
2019-02-12T11:32:08.746Z,6.47
2019-02-12T11:34:37.604Z,6.90
2019-02-12T11:37:06.616Z,7.00
2019-02-12T11:39:35.410Z,7.73
2019-02-12T11:42:04.556Z,7.27
2019-02-12T11:44:33.333Z,7.80
2019-02-12T11:47:02.130Z,8.20
2019-02-12T11:49:30.943Z,8.93
2019-02-12T11:51:59.963Z,8.20
2019-02-12T11:54:28.721Z,8.17
2019-02-12T11:56:57.532Z,8.73
2019-02-12T11:59:26.417Z,8.50
2019-02-12T12:01:55.264Z,9.50
2019-02-12T12:04:24.039Z,8.53
2019-02-12T12:06:52.853Z,9.50
2019-02-12T12:09:21.734Z,10.17
2019-02-12T12:11:50.720Z,10.63
2019-02-12T12:14:19.618Z,10.63
2019-02-12T12:16:48.376Z,10.30
2019-02-12T12:19:17.301Z,9.93
2019-02-12T12:21:46.075Z,9.20
2019-02-12T12:24:14.894Z,10.20
2019-02-12T12:26:43.664Z,8.70
2019-02-12T12:29:12.450Z,8.93
2019-02-12T12:31:41.216Z,9.47
2019-02-12T12:34:10.014Z,8.53
2019-02-12T12:36:39.640Z,8.60
2019-02-12T12:39:08.830Z,8.57
2019-02-12T12:41:37.600Z,8.30
2019-02-12T12:44:06.435Z,7.77
2019-02-12T12:46:35.216Z,6.80
2019-02-12T12:49:04.181Z,7.13
2019-02-12T12:51:33.033Z,6.90
2019-02-12T12:54:02.292Z,7.43
2019-02-12T12:56:31.101Z,6.33
2019-02-12T12:59:00.120Z,6.83
2019-02-12T13:01:28.905Z,6.70
2019-02-12T13:03:57.803Z,5.97
2019-02-12T13:06:26.638Z,5.40
2019-02-12T13:08:55.424Z,6.03
2019-02-12T13:11:24.497Z,5.60
2019-02-12T13:13:53.380Z,6.30
2019-02-12T13:16:22.304Z,6.47
2019-02-12T13:18:51.334Z,6.63
2019-02-12T13:21:21.983Z,5.80
2019-02-12T13:23:50.811Z,6.30
2019-02-12T13:26:19.712Z,6.73
2019-02-12T13:28:48.489Z,6.30
2019-02-12T13:31:17.283Z,6.47
2019-02-12T13:33:46.232Z,6.80
2019-02-12T13:36:15.426Z,6.70
2019-02-12T13:38:44.439Z,6.17
2019-02-12T13:41:14.015Z,6.00
2019-02-12T13:43:43.094Z,6.07
2019-02-12T13:46:11.972Z,5.97
2019-02-12T13:48:41.888Z,5.97
2019-02-12T13:51:10.709Z,6.57
2019-02-12T13:53:39.513Z,6.00
2019-02-12T13:56:08.527Z,5.83
2019-02-12T13:58:37.301Z,6.43
2019-02-12T14:01:06.227Z,6.03
2019-02-12T14:03:35.267Z,6.00
2019-02-12T14:06:04.095Z,6.17
2019-02-12T14:08:35.058Z,6.37
2019-02-12T14:11:03.926Z,6.63
2019-02-12T14:13:32.866Z,5.77
2019-02-12T14:16:01.932Z,6.57
2019-02-12T14:18:30.831Z,7.37
2019-02-12T14:20:59.729Z,7.03
2019-02-12T14:23:28.970Z,7.13
2019-02-12T14:25:58.177Z,7.17
2019-02-12T14:28:27.137Z,7.30
2019-02-12T14:30:56.233Z,7.67
2019-02-12T14:33:25.244Z,7.27
2019-02-12T14:35:54.015Z,7.00
2019-02-12T14:38:23.017Z,7.70
2019-02-12T14:40:51.887Z,7.23
2019-02-12T14:43:20.735Z,8.80
2019-02-12T14:45:49.523Z,7.40
2019-02-12T14:48:18.314Z,7.70
2019-02-12T14:50:47.124Z,8.37
2019-02-12T14:53:16.013Z,8.70
2019-02-12T14:55:44.880Z,8.80
2019-02-12T14:58:13.736Z,8.30
2019-02-12T15:00:44.693Z,9.33
2019-02-12T15:03:14.494Z,9.07
2019-02-12T15:05:43.327Z,8.80
2019-02-12T15:08:12.273Z,8.60
2019-02-12T15:10:41.245Z,8.87
2019-02-12T15:13:09.986Z,8.73
2019-02-12T15:15:39.218Z,8.80
2019-02-12T15:18:08.004Z,8.80
2019-02-12T15:20:37.205Z,9.53
2019-02-12T15:23:06.071Z,9.50
2019-02-12T15:25:41.825Z,9.07
2019-02-12T15:28:05.810Z,8.57
2019-02-12T15:30:34.693Z,10.10
2019-02-12T15:33:03.938Z,9.90
2019-02-12T15:35:34.231Z,9.60
2019-02-12T15:38:03.047Z,9.40
2019-02-12T15:40:31.887Z,9.63
2019-02-12T15:43:01.232Z,9.27
2019-02-12T15:45:30.251Z,9.57
2019-02-12T15:47:59.415Z,10.00
2019-02-12T15:50:28.254Z,9.93
2019-02-12T15:52:57.120Z,8.73
2019-02-12T15:55:26.214Z,8.93
2019-02-12T15:57:55.108Z,9.87
2019-02-12T16:00:24.048Z,8.83
2019-02-12T16:02:54.524Z,9.77
2019-02-12T16:05:23.834Z,9.57
2019-02-12T16:07:52.811Z,9.13
2019-02-12T16:10:21.781Z,9.67
2019-02-12T16:12:51.482Z,9.20
2019-02-12T16:15:22.395Z,9.70
2019-02-12T16:17:51.424Z,10.20
2019-02-12T16:20:20.313Z,9.33
2019-02-12T16:22:49.145Z,10.33
2019-02-12T16:25:18.222Z,9.67
2019-02-12T16:27:47.214Z,10.27
2019-02-12T16:30:16.767Z,10.63
2019-02-12T16:32:45.603Z,10.60
2019-02-12T16:35:15.747Z,10.57
2019-02-12T16:37:44.655Z,10.03
2019-02-12T16:40:13.676Z,11.27
2019-02-12T16:42:44.444Z,10.97
2019-02-12T16:45:14.785Z,11.60
2019-02-12T16:47:43.632Z,12.13
2019-02-12T16:50:12.420Z,11.77
2019-02-12T16:52:41.380Z,12.20
2019-02-12T16:55:10.478Z,11.67
2019-02-12T16:57:39.332Z,12.20
2019-02-12T17:00:10.117Z,11.90
2019-02-12T17:02:39.111Z,11.93
2019-02-12T17:05:08.762Z,12.43
2019-02-12T17:07:37.678Z,12.90
2019-02-12T17:10:07.118Z,12.40
2019-02-12T17:12:36.027Z,13.00
2019-02-12T17:15:05.410Z,13.47
2019-02-12T17:17:34.784Z,13.27
2019-02-12T17:20:04.156Z,12.03
2019-02-12T17:22:32.996Z,13.17
2019-02-12T17:25:02.075Z,13.20
2019-02-12T17:27:31.346Z,13.43
2019-02-12T17:30:00.496Z,12.60
2019-02-12T17:32:29.495Z,12.10
2019-02-12T17:35:01.337Z,12.47
2019-02-12T17:37:28.832Z,13.30
2019-02-12T17:39:58.092Z,12.20
2019-02-12T17:42:26.995Z,11.97
2019-02-12T17:44:55.965Z,12.47
2019-02-12T17:47:24.740Z,12.10
2019-02-12T17:49:53.697Z,11.93
2019-02-12T17:52:24.078Z,13.03
2019-02-12T17:54:52.993Z,13.00
2019-02-12T17:57:21.841Z,12.73
2019-02-12T17:59:51.462Z,12.77
2019-02-12T18:02:20.505Z,12.57
2019-02-12T18:04:49.575Z,12.80
2019-02-12T18:07:18.424Z,12.70
2019-02-12T18:09:47.757Z,13.10
2019-02-12T18:12:18.806Z,13.57
2019-02-12T18:14:47.710Z,13.00
2019-02-12T18:17:17.452Z,13.00
2019-02-12T18:19:46.492Z,13.17
2019-02-12T18:22:15.641Z,12.97
2019-02-12T18:24:44.820Z,13.27
2019-02-12T18:27:13.719Z,13.37
2019-02-12T18:29:42.564Z,13.70
2019-02-12T18:32:11.600Z,13.53
2019-02-12T18:34:40.661Z,13.43
2019-02-12T18:37:09.618Z,13.43
2019-02-12T18:39:38.779Z,14.00
2019-02-12T18:42:08.709Z,13.60
2019-02-12T18:44:37.832Z,14.00
2019-02-12T18:47:07.038Z,14.03
2019-02-12T18:49:36.347Z,13.87
2019-02-12T18:52:05.644Z,14.10
2019-02-12T18:54:34.590Z,13.33
2019-02-12T18:57:04.030Z,14.57
2019-02-12T18:59:33.002Z,14.60
2019-02-12T19:02:02.040Z,14.27
2019-02-12T19:04:31.134Z,14.37
2019-02-12T19:07:00.878Z,14.27
2019-02-12T19:09:30.009Z,15.17
2019-02-12T19:11:59.062Z,15.40
2019-02-12T19:14:28.006Z,14.90
2019-02-12T19:16:58.236Z,15.10
2019-02-12T19:19:27.277Z,14.93
2019-02-12T19:21:56.324Z,15.37
2019-02-12T19:24:25.358Z,15.50
2019-02-12T19:26:54.440Z,14.80
2019-02-12T19:29:23.819Z,15.23
2019-02-12T19:31:59.207Z,16.13
2019-02-12T19:34:23.814Z,15.60
2019-02-12T19:36:52.702Z,15.70
2019-02-12T19:39:21.938Z,15.10
2019-02-12T19:41:50.812Z,15.40
2019-02-12T19:44:20.720Z,14.83
2019-02-12T19:46:49.888Z,15.27
2019-02-12T19:49:18.998Z,14.47
2019-02-12T19:51:48.138Z,15.33
2019-02-12T19:54:17.109Z,14.60
2019-02-12T19:56:46.242Z,14.83
2019-02-12T19:59:15.342Z,14.87
2019-02-12T20:01:44.807Z,14.93
2019-02-12T20:04:15.267Z,14.87
2019-02-12T20:06:44.473Z,14.47
2019-02-12T20:09:20.448Z,15.23
2019-02-12T20:11:49.626Z,14.53
2019-02-12T20:14:19.405Z,14.80
2019-02-12T20:16:49.141Z,15.00
2019-02-12T20:19:18.562Z,14.73
2019-02-12T20:21:47.714Z,14.90
2019-02-12T20:24:16.928Z,16.30
2019-02-12T20:26:45.972Z,17.80
2019-02-12T20:29:15.015Z,21.47
2019-02-12T20:31:44.355Z,16.20
2019-02-12T20:34:13.409Z,15.57
2019-02-12T20:36:43.241Z,15.30
2019-02-12T20:39:12.719Z,14.50
2019-02-12T20:41:41.995Z,14.77
2019-02-12T20:44:10.945Z,17.73
2019-02-12T20:46:40.360Z,14.67
2019-02-12T20:49:09.843Z,16.70
2019-02-12T20:51:39.272Z,17.90
2019-02-12T20:54:08.565Z,18.73
2019-02-12T20:56:38.525Z,18.07
2019-02-12T20:59:07.680Z,15.90
2019-02-12T21:01:55.613Z,14.77
2019-02-12T21:04:24.852Z,15.07
2019-02-12T21:06:54.733Z,14.53
2019-02-12T21:09:23.711Z,14.33
2019-02-12T21:11:52.985Z,14.27
2019-02-12T21:14:22.142Z,14.47
2019-02-12T21:16:51.529Z,14.97
2019-02-12T21:19:20.543Z,14.23
2019-02-12T21:21:49.746Z,14.27
2019-02-12T21:24:19.249Z,14.87
2019-02-12T21:26:48.470Z,15.30
2019-02-12T21:29:17.489Z,15.50
2019-02-12T21:31:46.575Z,15.13
2019-02-12T21:34:15.704Z,14.40
2019-02-12T21:36:45.106Z,15.43
2019-02-12T21:39:16.190Z,15.50
2019-02-12T21:41:45.123Z,15.33
2019-02-12T21:44:18.436Z,15.67
2019-02-12T21:46:47.492Z,15.30
2019-02-12T21:49:16.856Z,14.53
2019-02-12T21:51:45.999Z,15.47
2019-02-12T21:54:15.364Z,14.63
2019-02-12T21:56:44.454Z,15.83
2019-02-12T21:59:13.496Z,14.90
2019-02-12T22:01:42.736Z,15.77
2019-02-12T22:04:12.445Z,16.03
2019-02-12T22:06:41.706Z,16.30
2019-02-12T22:09:14.091Z,15.83
2019-02-12T22:11:43.136Z,15.63
2019-02-12T22:14:13.658Z,16.13
2019-02-12T22:16:42.656Z,16.37
2019-02-12T22:19:12.092Z,16.17
2019-02-12T22:21:42.475Z,17.03
2019-02-12T22:24:14.027Z,17.43
2019-02-12T22:26:43.048Z,17.10
2019-02-12T22:29:12.366Z,17.27
2019-02-12T22:31:41.401Z,17.83
2019-02-12T22:34:10.530Z,17.30
2019-02-12T22:36:39.507Z,17.70
2019-02-12T22:39:08.509Z,17.17
2019-02-12T22:41:37.615Z,18.27
2019-02-12T22:44:06.433Z,17.80
2019-02-12T22:46:35.344Z,17.67
2019-02-12T22:49:04.536Z,18.60
2019-02-12T22:51:33.782Z,17.47
2019-02-12T22:54:03.032Z,18.07
2019-02-12T22:56:32.136Z,17.93
2019-02-12T22:59:01.280Z,18.37
2019-02-12T23:01:40.315Z,19.00
2019-02-12T23:04:10.201Z,18.07
2019-02-12T23:06:39.070Z,18.00
2019-02-12T23:09:16.359Z,18.20
2019-02-12T23:11:45.693Z,18.27
2019-02-12T23:14:15.370Z,18.43
2019-02-12T23:16:45.347Z,19.30
2019-02-12T23:19:14.401Z,17.73
2019-02-12T23:21:43.429Z,18.20
2019-02-12T23:24:12.491Z,18.40
2019-02-12T23:26:41.664Z,19.77
2019-02-12T23:29:10.478Z,18.67
2019-02-12T23:31:39.340Z,18.83
2019-02-12T23:34:08.183Z,19.50
2019-02-12T23:36:37.155Z,18.63
2019-02-12T23:39:06.732Z,19.63
2019-02-12T23:41:35.595Z,18.13
2019-02-12T23:44:04.689Z,18.90
2019-02-12T23:46:33.631Z,18.40
2019-02-12T23:51:40.603Z,18.50
2019-02-12T23:54:09.435Z,19.13
2019-02-12T23:56:38.383Z,18.13
2019-02-12T23:59:07.176Z,18.20
